createdAt,value
2018-12-24T00:00:43.660Z,10.20
2018-12-24T00:03:12.578Z,10.20
2018-12-24T00:05:42.239Z,10.20
2018-12-24T00:08:11.376Z,10.20
2018-12-24T00:10:40.298Z,10.00
2018-12-24T00:13:09.788Z,9.70
2018-12-24T00:15:38.894Z,9.50
2018-12-24T00:18:08.010Z,9.30
2018-12-24T00:20:36.877Z,9.20
2018-12-24T00:23:06.075Z,9.00
2018-12-24T00:25:35.498Z,8.90
2018-12-24T00:28:04.539Z,8.80
2018-12-24T00:30:33.377Z,8.80
2018-12-24T00:33:02.378Z,8.70
2018-12-24T00:35:31.455Z,8.70
2018-12-24T00:38:00.847Z,8.70
2018-12-24T00:40:29.754Z,8.60
2018-12-24T00:42:58.603Z,8.60
2018-12-24T00:45:27.959Z,8.60
2018-12-24T00:47:56.791Z,8.60
2018-12-24T00:50:26.020Z,8.60
2018-12-24T00:52:55.520Z,8.60
2018-12-24T00:55:24.393Z,8.50
2018-12-24T00:57:53.754Z,8.50
2018-12-24T01:00:23.153Z,8.30
2018-12-24T01:02:51.969Z,8.00
2018-12-24T01:05:20.912Z,7.70
2018-12-24T01:07:50.055Z,7.60
2018-12-24T01:10:18.957Z,7.40
2018-12-24T01:12:48.063Z,7.30
2018-12-24T01:15:17.482Z,7.10
2018-12-24T01:17:46.570Z,7.00
2018-12-24T01:20:16.018Z,7.00
2018-12-24T01:22:45.086Z,6.90
2018-12-24T01:25:13.897Z,6.80
2018-12-24T01:27:43.045Z,6.70
2018-12-24T01:30:12.230Z,6.70
2018-12-24T01:32:41.347Z,6.60
2018-12-24T01:35:10.313Z,6.50
2018-12-24T01:37:39.464Z,6.40
2018-12-24T01:40:08.925Z,6.30
2018-12-24T01:42:38.262Z,6.20
2018-12-24T01:45:07.440Z,6.20
2018-12-24T01:47:36.222Z,6.10
2018-12-24T01:50:05.147Z,6.10
2018-12-24T01:52:34.335Z,6.00
2018-12-24T01:55:03.646Z,6.00
2018-12-24T01:57:32.474Z,6.00
2018-12-24T02:00:01.640Z,5.90
2018-12-24T02:02:31.142Z,5.90
2018-12-24T02:05:01.067Z,5.80
2018-12-24T02:07:30.307Z,5.80
2018-12-24T02:09:59.383Z,5.80
2018-12-24T02:12:28.545Z,5.70
2018-12-24T02:14:57.748Z,5.70
2018-12-24T02:17:26.873Z,5.60
2018-12-24T02:19:56.230Z,5.60
2018-12-24T02:22:25.359Z,5.50
2018-12-24T02:24:54.711Z,5.50
2018-12-24T02:27:24.103Z,5.50
2018-12-24T02:29:53.332Z,5.50
2018-12-24T02:32:22.490Z,5.40
2018-12-24T02:34:51.547Z,5.40
2018-12-24T02:37:21.048Z,5.40
2018-12-24T02:39:50.131Z,5.30
2018-12-24T02:42:19.015Z,5.30
2018-12-24T02:44:48.137Z,5.30
2018-12-24T02:47:17.579Z,5.30
2018-12-24T02:49:46.385Z,5.30
2018-12-24T02:52:15.809Z,5.20
2018-12-24T02:54:44.636Z,5.20
2018-12-24T02:57:13.540Z,5.20
2018-12-24T02:59:42.449Z,5.20
2018-12-24T03:02:11.623Z,5.10
2018-12-24T03:04:40.426Z,5.10
2018-12-24T03:07:09.613Z,5.10
2018-12-24T03:09:38.981Z,5.00
2018-12-24T03:12:07.800Z,5.00
2018-12-24T03:14:36.906Z,5.00
2018-12-24T03:17:05.721Z,4.90
2018-12-24T03:19:35.119Z,4.90
2018-12-24T03:22:04.589Z,4.80
2018-12-24T03:24:33.984Z,4.70
2018-12-24T03:27:03.844Z,4.70
2018-12-24T03:29:33.275Z,4.60
2018-12-24T03:32:02.985Z,4.60
2018-12-24T03:34:32.732Z,4.50
2018-12-24T03:37:02.119Z,4.50
2018-12-24T03:39:31.316Z,4.50
2018-12-24T03:42:00.671Z,4.40
2018-12-24T03:44:30.036Z,4.40
2018-12-24T03:46:59.650Z,4.40
2018-12-24T03:49:28.767Z,4.30
2018-12-24T03:51:57.860Z,4.30
2018-12-24T03:54:27.321Z,4.20
2018-12-24T03:56:56.691Z,4.20
2018-12-24T03:59:26.044Z,4.20
2018-12-24T04:01:55.432Z,4.10
2018-12-24T04:04:25.076Z,4.10
2018-12-24T04:06:54.442Z,4.00
2018-12-24T04:09:23.817Z,4.00
2018-12-24T04:11:53.156Z,4.00
2018-12-24T04:14:22.535Z,4.00
2018-12-24T04:16:52.135Z,4.00
2018-12-24T04:19:21.235Z,4.00
2018-12-24T04:21:50.328Z,3.90
2018-12-24T04:24:20.219Z,4.00
2018-12-24T04:26:49.591Z,3.80
2018-12-24T04:29:18.707Z,3.60
2018-12-24T04:31:48.331Z,3.60
2018-12-24T04:34:17.777Z,3.60
2018-12-24T04:36:47.518Z,3.50
2018-12-24T04:39:17.447Z,3.70
2018-12-24T04:41:46.275Z,3.50
2018-12-24T04:44:15.415Z,3.70
2018-12-24T04:46:44.527Z,3.50
2018-12-24T04:49:14.123Z,3.50
2018-12-24T04:51:43.540Z,3.50
2018-12-24T04:54:12.892Z,3.50
2018-12-24T04:56:42.337Z,3.50
2018-12-24T04:59:12.036Z,3.50
2018-12-24T05:01:41.438Z,3.40
2018-12-24T05:04:10.812Z,3.50
2018-12-24T05:06:40.431Z,3.50
2018-12-24T05:09:09.832Z,3.40
2018-12-24T05:11:39.484Z,3.40
2018-12-24T05:14:08.614Z,3.40
2018-12-24T05:16:37.695Z,3.40
2018-12-24T05:19:06.815Z,3.40
2018-12-24T05:21:35.978Z,3.40
2018-12-24T05:24:05.683Z,3.40
2018-12-24T05:26:35.415Z,3.30
2018-12-24T05:29:04.850Z,3.30
2018-12-24T05:31:33.975Z,3.30
2018-12-24T05:34:03.619Z,3.40
2018-12-24T05:36:33.007Z,3.40
2018-12-24T05:39:02.399Z,3.40
2018-12-24T05:41:32.294Z,3.40
2018-12-24T05:44:01.420Z,3.40
2018-12-24T05:46:30.310Z,3.40
2018-12-24T05:48:59.481Z,3.40
2018-12-24T05:51:28.922Z,3.40
2018-12-24T05:53:58.672Z,3.30
2018-12-24T05:56:28.050Z,3.40
2018-12-24T05:58:57.187Z,3.40
2018-12-24T06:03:55.690Z,3.30
2018-12-24T06:06:25.439Z,3.30
2018-12-24T06:08:55.305Z,3.30
2018-12-24T06:11:24.681Z,3.30
2018-12-24T06:13:57.889Z,3.30
2018-12-24T06:16:24.589Z,3.30
2018-12-24T06:18:54.355Z,3.30
2018-12-24T06:21:23.763Z,3.30
2018-12-24T06:23:53.143Z,3.30
2018-12-24T06:26:22.796Z,3.30
2018-12-24T06:28:51.674Z,3.40
2018-12-24T06:31:21.159Z,3.30
2018-12-24T06:33:50.266Z,3.30
2018-12-24T06:36:19.893Z,3.30
2018-12-24T06:38:49.522Z,3.30
2018-12-24T06:41:19.686Z,3.30
2018-12-24T06:43:49.296Z,3.30
2018-12-24T06:46:18.548Z,3.30
2018-12-24T06:48:47.913Z,3.30
2018-12-24T06:51:17.375Z,3.30
2018-12-24T06:53:47.051Z,3.30
2018-12-24T06:56:15.849Z,3.30
2018-12-24T06:58:44.999Z,3.30
2018-12-24T07:01:14.192Z,3.30
2018-12-24T07:03:43.605Z,3.30
2018-12-24T07:06:12.982Z,3.30
2018-12-24T07:08:42.371Z,3.30
2018-12-24T07:11:11.455Z,3.30
2018-12-24T07:13:40.911Z,3.30
2018-12-24T07:16:10.248Z,3.30
2018-12-24T07:18:39.871Z,3.30
2018-12-24T07:21:09.195Z,3.40
2018-12-24T07:23:38.548Z,3.30
2018-12-24T07:26:09.049Z,3.30
2018-12-24T07:28:38.575Z,3.40
2018-12-24T07:31:07.667Z,3.20
2018-12-24T07:33:37.103Z,3.40
2018-12-24T07:36:06.455Z,3.40
2018-12-24T07:38:36.360Z,3.40
2018-12-24T07:41:05.161Z,3.30
2018-12-24T07:43:34.883Z,3.40
2018-12-24T07:46:04.233Z,3.30
2018-12-24T07:48:33.660Z,3.40
2018-12-24T07:51:03.024Z,3.20
2018-12-24T07:53:32.459Z,3.40
2018-12-24T07:56:01.815Z,3.50
2018-12-24T07:58:31.247Z,3.40
2018-12-24T08:01:00.347Z,3.30
2018-12-24T08:03:30.097Z,3.50
2018-12-24T08:05:59.541Z,3.50
2018-12-24T08:08:28.731Z,3.50
2018-12-24T08:10:58.294Z,3.70
2018-12-24T08:13:27.768Z,3.50
2018-12-24T08:15:56.883Z,3.50
2018-12-24T08:18:26.528Z,3.70
2018-12-24T08:20:55.671Z,3.50
2018-12-24T08:23:24.850Z,3.50
2018-12-24T08:25:54.247Z,3.50
2018-12-24T08:28:23.724Z,3.60
2018-12-24T08:30:52.939Z,3.60
2018-12-24T08:33:22.636Z,3.60
2018-12-24T08:35:52.365Z,3.60
2018-12-24T08:38:21.746Z,3.60
2018-12-24T08:40:52.297Z,3.60
2018-12-24T08:43:21.439Z,3.70
2018-12-24T08:48:20.104Z,3.70
2018-12-24T08:50:49.535Z,3.70
2018-12-24T08:53:18.371Z,3.80
2018-12-24T08:55:47.763Z,3.80
2018-12-24T08:58:16.895Z,3.80
2018-12-24T09:00:46.179Z,3.80
2018-12-24T09:03:15.768Z,3.80
2018-12-24T09:05:45.150Z,3.90
2018-12-24T09:08:14.548Z,3.90
2018-12-24T09:10:44.176Z,4.00
2018-12-24T09:13:13.643Z,4.00
2018-12-24T09:15:43.016Z,4.00
2018-12-24T09:18:12.148Z,4.10
2018-12-24T09:20:41.513Z,4.10
2018-12-24T09:23:11.001Z,4.10
2018-12-24T09:25:40.233Z,4.20
2018-12-24T09:28:09.367Z,4.20
2018-12-24T09:30:43.696Z,4.20
2018-12-24T09:33:12.807Z,4.20
2018-12-24T09:35:41.946Z,4.30
2018-12-24T09:38:11.738Z,4.30
2018-12-24T09:40:41.339Z,4.30
2018-12-24T09:43:10.444Z,4.20
2018-12-24T09:45:39.823Z,4.30
2018-12-24T09:50:38.167Z,4.40
2018-12-24T09:53:07.302Z,4.30
2018-12-24T09:55:36.111Z,4.30
2018-12-24T09:58:05.272Z,4.40
2018-12-24T10:00:34.911Z,4.30
2018-12-24T10:03:13.071Z,4.40
2018-12-24T10:05:42.188Z,4.30
2018-12-24T10:08:15.148Z,4.30
2018-12-24T10:10:44.586Z,4.40
2018-12-24T10:13:13.842Z,4.40
2018-12-24T10:15:44.742Z,4.40
2018-12-24T10:18:14.391Z,4.40
2018-12-24T10:20:44.014Z,4.40
2018-12-24T10:23:13.710Z,4.40
2018-12-24T10:25:43.361Z,4.40
2018-12-24T10:28:13.082Z,4.40
2018-12-24T10:30:42.224Z,4.40
2018-12-24T10:33:11.991Z,4.40
2018-12-24T10:35:41.694Z,4.40
2018-12-24T10:38:11.340Z,4.40
2018-12-24T10:40:47.882Z,4.40
2018-12-24T10:43:17.015Z,4.30
2018-12-24T10:50:43.531Z,4.30
2018-12-24T10:53:12.665Z,4.50
2018-12-24T10:55:41.817Z,4.50
2018-12-24T10:58:11.664Z,4.40
2018-12-24T11:03:09.745Z,4.50
2018-12-24T11:05:39.422Z,4.50
2018-12-24T11:08:08.483Z,4.60
2018-12-24T11:10:37.977Z,4.70
2018-12-24T11:13:07.371Z,4.80
2018-12-24T11:15:36.200Z,4.40
2018-12-24T11:18:05.151Z,4.60
2018-12-24T11:25:31.283Z,4.70
2018-12-24T11:28:00.601Z,4.80
2018-12-24T11:30:29.606Z,4.70
2018-12-24T11:32:58.442Z,4.60
2018-12-24T11:37:57.037Z,4.80
2018-12-24T11:40:26.610Z,5.30
2018-12-24T11:42:55.778Z,4.70
2018-12-24T11:45:33.727Z,4.80
2018-12-24T11:47:59.580Z,4.60
2018-12-24T11:50:28.647Z,5.00
2018-12-24T11:52:57.562Z,4.70
2018-12-24T11:55:27.195Z,5.10
2018-12-24T11:57:58.547Z,5.10
2018-12-24T12:00:28.060Z,4.70
2018-12-24T12:02:57.726Z,5.30
2018-12-24T12:08:10.415Z,4.80
2018-12-24T12:10:39.201Z,4.80
2018-12-24T12:13:08.342Z,4.60
2018-12-24T12:15:42.540Z,4.70
2018-12-24T12:18:07.726Z,4.90
2018-12-24T12:23:05.175Z,4.90
2018-12-24T12:25:34.422Z,5.00
2018-12-24T12:28:06.188Z,5.30
2018-12-24T12:33:07.011Z,5.30
2018-12-24T12:35:44.085Z,5.00
2018-12-24T12:38:13.248Z,4.70
2018-12-24T12:40:42.334Z,4.90
2018-12-24T12:43:11.430Z,4.70
2018-12-24T12:45:40.510Z,4.90
2018-12-24T12:48:09.313Z,4.90
2018-12-24T12:50:38.130Z,4.90
2018-12-24T12:53:07.262Z,5.00
2018-12-24T12:55:36.048Z,5.30
2018-12-24T13:00:34.054Z,5.20
2018-12-24T13:03:03.511Z,5.10
2018-12-24T13:08:00.931Z,5.00
2018-12-24T13:10:29.835Z,5.20
2018-12-24T13:17:59.162Z,4.70
2018-12-24T13:20:29.723Z,5.00
2018-12-24T13:25:27.819Z,4.80
2018-12-24T13:27:58.426Z,4.70
2018-12-24T13:30:27.917Z,4.70
2018-12-24T13:33:00.771Z,4.50
2018-12-24T13:35:29.776Z,5.00
2018-12-24T13:37:59.370Z,4.40
2018-12-24T13:40:29.269Z,4.50
2018-12-24T13:42:58.423Z,4.60
2018-12-24T13:45:29.164Z,4.00
2018-12-24T13:47:58.351Z,4.10
2018-12-24T13:50:28.651Z,4.00
2018-12-24T13:52:57.648Z,3.90
2018-12-24T13:55:27.223Z,3.90
2018-12-24T13:57:56.774Z,3.70
2018-12-24T14:00:25.918Z,3.70
2018-12-24T14:02:55.359Z,3.90
2018-12-24T14:05:24.417Z,3.90
2018-12-24T14:07:58.400Z,3.90
2018-12-24T14:10:27.300Z,3.90
2018-12-24T14:12:56.114Z,3.90
2018-12-24T14:15:25.271Z,3.80
2018-12-24T14:17:54.338Z,3.80
2018-12-24T14:20:23.694Z,3.80
2018-12-24T14:22:52.547Z,3.80
2018-12-24T14:25:21.685Z,3.90
2018-12-24T14:27:50.502Z,3.40
2018-12-24T14:30:19.631Z,3.70
2018-12-24T14:35:17.057Z,3.50
2018-12-24T14:37:46.167Z,3.60
2018-12-24T14:42:43.802Z,3.50
2018-12-24T14:47:41.258Z,3.40
2018-12-24T14:50:10.423Z,3.50
2018-12-24T14:52:39.779Z,3.60
2018-12-24T14:55:08.872Z,3.60
2018-12-24T15:00:07.471Z,3.60
2018-12-24T15:05:05.375Z,3.60
2018-12-24T15:07:35.090Z,3.60
2018-12-24T15:10:04.446Z,3.60
2018-12-24T15:12:33.712Z,3.50
2018-12-24T15:15:02.955Z,3.60
2018-12-24T15:17:31.774Z,3.60
2018-12-24T15:20:00.578Z,3.50
2018-12-24T15:22:29.400Z,3.50
2018-12-24T15:24:58.257Z,3.50
2018-12-24T15:27:27.356Z,3.70
2018-12-24T15:29:56.211Z,3.50
2018-12-24T15:32:25.611Z,3.00
2018-12-24T15:34:55.055Z,3.40
2018-12-24T15:42:21.495Z,3.40
2018-12-24T15:44:50.619Z,3.40
2018-12-24T15:47:20.101Z,3.40
2018-12-24T15:49:49.423Z,3.40
2018-12-24T15:52:19.067Z,3.40
2018-12-24T15:54:48.226Z,3.40
2018-12-24T15:57:17.802Z,3.40
2018-12-24T15:59:46.969Z,3.30
2018-12-24T16:02:15.782Z,3.30
2018-12-24T16:04:45.122Z,3.20
2018-12-24T16:07:13.916Z,3.20
2018-12-24T16:09:42.982Z,3.20
2018-12-24T16:12:12.094Z,3.20
2018-12-24T16:14:41.450Z,3.20
2018-12-24T16:17:10.241Z,3.20
2018-12-24T16:19:39.900Z,3.20
2018-12-24T16:22:08.694Z,3.20
2018-12-24T16:24:37.826Z,3.20
2018-12-24T16:27:06.602Z,3.20
2018-12-24T16:29:35.724Z,3.20
2018-12-24T16:32:04.553Z,3.10
2018-12-24T16:34:34.071Z,3.10
2018-12-24T16:37:03.431Z,3.10
2018-12-24T16:39:32.712Z,3.00
2018-12-24T16:42:02.250Z,2.90
2018-12-24T16:44:31.554Z,2.90
2018-12-24T16:47:00.836Z,2.90
2018-12-24T16:49:30.125Z,2.80
2018-12-24T16:51:59.102Z,2.80
2018-12-24T16:54:29.103Z,2.70
2018-12-24T16:56:58.361Z,2.70
2018-12-24T16:59:28.120Z,2.70
2018-12-24T17:01:57.627Z,2.70
2018-12-24T17:04:26.944Z,2.70
2018-12-24T17:06:55.983Z,2.60
2018-12-24T17:09:25.267Z,2.70
2018-12-24T17:11:54.555Z,2.60
2018-12-24T17:14:23.700Z,2.70
2018-12-24T17:16:52.948Z,2.70
2018-12-24T17:19:22.229Z,2.70
2018-12-24T17:21:51.195Z,2.70
2018-12-24T17:24:20.576Z,2.70
2018-12-24T17:26:49.821Z,2.70
2018-12-24T17:29:19.431Z,2.60
2018-12-24T17:31:48.695Z,2.50
2018-12-24T17:34:18.284Z,2.50
2018-12-24T17:36:47.543Z,2.40
2018-12-24T17:39:25.744Z,2.30
2018-12-24T17:41:54.982Z,2.40
2018-12-24T17:44:24.392Z,2.40
2018-12-24T17:46:53.895Z,2.40
2018-12-24T17:51:51.335Z,2.40
2018-12-24T17:54:20.482Z,2.40
2018-12-24T17:59:18.543Z,2.40
2018-12-24T18:04:15.944Z,2.40
2018-12-24T18:06:44.776Z,2.40
2018-12-24T18:09:14.143Z,2.30
2018-12-24T18:11:43.491Z,2.60
2018-12-24T18:14:12.605Z,2.50
2018-12-24T18:16:41.710Z,2.30
2018-12-24T18:21:39.995Z,2.30
2018-12-24T18:24:08.929Z,2.30
2018-12-24T18:26:38.094Z,2.20
2018-12-24T18:29:07.182Z,2.20
2018-12-24T18:31:35.989Z,2.10
2018-12-24T18:34:05.119Z,2.10
2018-12-24T18:36:34.467Z,2.00
2018-12-24T18:39:03.878Z,2.00
2018-12-24T18:41:33.002Z,1.90
2018-12-24T18:44:01.823Z,1.90
2018-12-24T18:46:30.962Z,1.90
2018-12-24T18:48:59.747Z,1.80
2018-12-24T18:51:28.973Z,1.80
2018-12-24T18:53:58.554Z,-0.10
2018-12-24T18:56:27.922Z,1.70
2018-12-24T18:58:57.516Z,1.70
2018-12-24T19:01:26.538Z,1.60
2018-12-24T19:03:55.805Z,1.60
2018-12-24T19:06:25.580Z,1.50
2018-12-24T19:08:54.660Z,1.50
2018-12-24T19:11:24.003Z,1.40
2018-12-24T19:13:53.375Z,1.40
2018-12-24T19:16:22.186Z,1.40
2018-12-24T19:18:51.252Z,1.30
2018-12-24T19:21:20.322Z,1.30
2018-12-24T19:23:49.161Z,1.30
2018-12-24T19:26:18.238Z,1.30
2018-12-24T19:28:47.326Z,1.30
2018-12-24T19:31:16.194Z,1.20
2018-12-24T19:33:44.990Z,1.20
2018-12-24T19:36:14.103Z,1.10
2018-12-24T19:38:43.285Z,1.10
2018-12-24T19:41:12.350Z,1.10
2018-12-24T19:43:41.203Z,1.10
2018-12-24T19:46:10.378Z,1.10
2018-12-24T19:48:39.442Z,1.10
2018-12-24T19:51:08.518Z,1.00
2018-12-24T19:53:37.463Z,1.00
2018-12-24T19:56:06.587Z,1.00
2018-12-24T19:58:35.932Z,1.00
2018-12-24T20:01:04.998Z,1.00
2018-12-24T20:03:34.377Z,1.00
2018-12-24T20:06:03.259Z,0.90
2018-12-24T20:08:32.362Z,1.00
2018-12-24T20:11:01.472Z,1.00
2018-12-24T20:13:30.563Z,1.00
2018-12-24T20:15:59.370Z,1.00
2018-12-24T20:18:28.271Z,1.00
2018-12-24T20:20:57.097Z,1.00
2018-12-24T20:23:26.298Z,1.00
2018-12-24T20:25:55.467Z,1.10
2018-12-24T20:28:24.814Z,1.10
2018-12-24T20:30:53.987Z,1.10
2018-12-24T20:33:23.398Z,1.10
2018-12-24T20:35:52.711Z,1.10
2018-12-24T20:38:21.541Z,1.10
2018-12-24T20:40:50.347Z,1.20
2018-12-24T20:43:19.505Z,1.20
2018-12-24T20:45:48.323Z,1.20
2018-12-24T20:48:17.426Z,1.20
2018-12-24T20:50:46.782Z,1.10
2018-12-24T20:53:15.855Z,1.20
2018-12-24T20:55:45.275Z,1.20
2018-12-24T20:58:14.607Z,1.20
2018-12-24T21:00:43.998Z,1.20
2018-12-24T21:03:12.839Z,1.20
2018-12-24T21:05:42.170Z,1.20
2018-12-24T21:08:11.527Z,1.20
2018-12-24T21:10:40.605Z,1.10
2018-12-24T21:13:09.457Z,1.10
2018-12-24T21:15:38.885Z,1.10
2018-12-24T21:18:14.879Z,1.10
2018-12-24T21:20:38.308Z,1.10
2018-12-24T21:23:07.161Z,1.10
2018-12-24T21:25:36.270Z,1.10
2018-12-24T21:28:05.083Z,1.10
2018-12-24T21:30:34.186Z,1.10
2018-12-24T21:33:03.249Z,1.10
2018-12-24T21:35:32.033Z,1.10
2018-12-24T21:38:01.170Z,1.10
2018-12-24T21:40:30.251Z,1.10
2018-12-24T21:42:59.458Z,1.10
2018-12-24T21:45:28.229Z,1.10
2018-12-24T21:47:57.460Z,1.00
2018-12-24T21:50:27.052Z,1.00
2018-12-24T21:52:55.866Z,1.00
2018-12-24T21:55:24.954Z,1.00
2018-12-24T21:57:53.895Z,1.00
2018-12-24T22:00:23.291Z,1.00
2018-12-24T22:02:52.363Z,1.00
2018-12-24T22:05:21.175Z,1.00
2018-12-24T22:07:50.614Z,1.00
2018-12-24T22:10:19.688Z,0.90
2018-12-24T22:12:48.967Z,0.90
2018-12-24T22:15:17.752Z,0.90
2018-12-24T22:17:47.035Z,0.90
2018-12-24T22:20:15.899Z,0.90
2018-12-24T22:22:44.756Z,0.90
2018-12-24T22:25:13.890Z,0.90
2018-12-24T22:27:43.346Z,0.90
2018-12-24T22:30:12.562Z,0.90
2018-12-24T22:32:41.430Z,0.90
2018-12-24T22:35:10.569Z,0.90
2018-12-24T22:37:39.707Z,0.80
2018-12-24T22:40:08.590Z,0.80
2018-12-24T22:42:37.465Z,0.80
2018-12-24T22:45:06.751Z,0.70
2018-12-24T22:47:36.079Z,0.60
2018-12-24T22:50:05.118Z,0.60
2018-12-24T22:52:34.017Z,0.60
2018-12-24T22:55:03.768Z,0.50
2018-12-24T22:57:32.939Z,0.50
2018-12-24T23:00:01.833Z,0.40
2018-12-24T23:02:31.043Z,0.40
2018-12-24T23:05:00.490Z,0.40
2018-12-24T23:07:29.595Z,0.40
2018-12-24T23:09:58.454Z,0.30
2018-12-24T23:12:27.578Z,0.30
2018-12-24T23:14:56.405Z,0.30
2018-12-24T23:17:25.528Z,0.20
2018-12-24T23:19:54.891Z,0.30
2018-12-24T23:22:23.962Z,0.20
2018-12-24T23:24:52.764Z,0.20
2018-12-24T23:27:22.152Z,0.20
2018-12-24T23:29:51.599Z,0.20
2018-12-24T23:32:20.430Z,0.20
2018-12-24T23:34:49.525Z,0.20
2018-12-24T23:37:18.690Z,0.20
2018-12-24T23:39:48.052Z,0.20
2018-12-24T23:42:16.831Z,0.20
2018-12-24T23:44:45.977Z,0.30
2018-12-24T23:47:15.067Z,0.30
2018-12-24T23:49:43.892Z,0.30
2018-12-24T23:52:13.005Z,0.30
2018-12-24T23:54:42.502Z,0.30
2018-12-24T23:57:11.595Z,0.30
2018-12-24T23:59:40.428Z,0.30
